Westchester, IL (60154)

3:05 AM CST en Noviembre 24, 2014 (GMT -0600)
Mr. Hammes's Weather | Change Station
CLOSE
Current Station
Estación meteorológica personal
Location: Westchester, IL
Altura: 641 ft
Estaciones meteorológicas cercanas

Alt 641 ft 41.85 °N, 87.87 °W | Updated 26 seconds ago

Nublado
Nublado
49.6 ° F
Sensación térmica 50 ° F
N
2.3
Viento Variable Viento desde SSO
Gusts 0.0 mph

Hoy
Alta -- | Baja -- ° F
--% Posibilidad de precipitaciones
Ayer
Alta -- | Baja -- ° F
Precip. -- pul
6:51 AM 4:24 PM
Creciente, 4% visible
Presión 29.09 pul
Visibilidad 8.0 Millas
Nubes Nublado 600 ft
Vientos helados 50 ° F
Punto de rocío 49 ° F
Humedad 97%
Precipitaciones 0.04 pul
Espesor de la nieve No disponible.
UV 0 de una escala de 12
Polen .10 de una escala de 12
Calidad del aire No disponible.
Flu Activity No disponible.
METAR KMDW 240853Z 24007KT 8SM -RA OVC006 10/09 A2909 RMK AO2 SLP851 P0001 60005 T01000094 55001

More Conditions Fewer Conditions

Presión 29.09 pul
Visibilidad 8.0 Millas
Nubes Nublado 600 ft
Vientos helados 50 ° F
Punto de rocío 49 ° F
Humedad 97%
Precipitaciones 0.04 pul
Espesor de la nieve No disponible.
UV 0 de una escala de 12
Polen .10 de una escala de 12
Calidad del aire No disponible.
Flu Activity No disponible.
METAR KMDW 240853Z 24007KT 8SM -RA OVC006 10/09 A2909 RMK AO2 SLP851 P0001 60005 T01000094 55001

More Conditions Fewer Conditions

10-Day Weather Forecast

Almanac

Astronomía

Nov. 24, 2014 Salida Puesta
Hora real
Crepúsculo civil
Crepúsculo náutico
Crepúsculo astronómico
Luna
Horas de luz
Horas de luz
Tomorrow will be .
, % of the Moon is Illuminated

Extremos de hoy

Máximos del estado Bajos del estado

Community

WunderPhotos

Upload Photos

1,773,295 ¡fotos cargadas!

WunderBlogs® & News

Nearby

Calidad del aire

  Calidad del aire Índice AQ Contaminante
Not available.

Grosos de nieve

Estación Profundido Altura

Actividad de terremotos

Ciudad Distance Mag. Tiempo y dato
Magnitud mínima muestra es 2,5.

Temperaturas de aguas costeras

Lugar Temperatura

Estaciones meteorológicas cercanas